map of LYH home
LYH - Airport
Location
City:  Lynchburg, Virginia, United States
Name:Lynchburg Regional/Preston Glenn Field
ICAO:KLYH
IATA:LYH
FAA LID:LYH

Details
Type:Airport (Part 139 Class I)
Use:Public/Civil
Latitude:3719'31"N (37.325389)
Longitude:7912'04"W (-79.201221)
Datum:WGS 1984
Elevation:938 ft (286 m)
Variation:9.19W (WMM2015 magnetic declination)
-0.03 annual change
Runways:2
Longest:7100 × 150 ft (2164 × 45.5 m), paved

Time
Time Zone:UTC-5 (DST-4)
Local Time:

Weather
METAR:KLYH 152054Z VRB04KT 10SM OVC040 03/M06 A2991 RMK AO2 SLP133 T00281056 58004
TAF:KLYH 151720Z 1518/1618 VRB03KT P6SM BKN020
FM152100 26006KT P6SM SCT250

Related Locations
Nearby:
Farthest:MQZ: 11605 mi / 18677 km
Margaret River [Margaret River Airport], WA, AU

Find:

   beyond  
but within

Other Information
Maps:
Delays:
NOTAMs:
Links:
Sources:

  
flag of United States
flag of Virginia
  

Airport Diagram

Airport diagram for LYH

Airport diagram PDF

Sectional Chart

Flight Planning
at skyvector.com

Satellite Image

Google Maps Satellite view

 

Copyright © 2004-2017 Karl L. Swartz. All rights reserved.
The Great Circle Mapper name and logo are trademarks of the Great Circle Mapper.
All other trademarks mentioned herein belong to their respective owners.
Please see credits for attibutions and further copyright information.

  Follow gcmap on Facebook Follow gcmap on Twitter Follow gcmap on Google+ GCmap on LinkedIn

hCard Microformat

Geo Microformat